Time;durP1;ratioP1;P1;durP2;ratioP2;P2;SDS_P1;SDS_P2;PMS_P1;PMS_P2;Temp;Humidity;BMP_temperature;BMP_pressure;BME280_temperature;BME280_humidity;BME280_pressure;Samples;Min_cycle;Max_cycle;Signal;HPM_P1;HPM_P2
2022/01/20 00:02:01;;;;;;;14.63;7.00;;;;;;;-1.03;83.38;95202.38;5092173;28;20178;-63
2022/01/20 00:04:52;;;;;;;13.07;7.80;;;;;;;-1.05;83.22;95201.63;5073890;28;20179;-63
2022/01/20 00:28:26;;;;;;;16.77;7.70;;;;;;;-1.28;85.06;95173.28;5091856;28;20275;-63
2022/01/20 00:31:03;;;;;;;13.90;7.80;;;;;;;-1.29;84.54;95172.47;5074855;28;20222;-63
2022/01/20 00:33:41;;;;;;;19.73;7.37;;;;;;;-1.27;84.45;95174.94;5090677;28;20178;-63
2022/01/20 00:38:33;;;;;;;11.37;6.97;;;;;;;-1.41;83.40;95179.50;5091669;28;20168;-64
2022/01/20 00:40:59;;;;;;;15.20;6.27;;;;;;;-1.51;83.94;95170.66;5091889;28;20225;-62
2022/01/20 00:43:25;;;;;;;15.63;5.77;;;;;;;-1.44;82.59;95189.56;5091712;28;20253;-64
2022/01/20 00:45:51;;;;;;;8.80;5.77;;;;;;;-1.45;83.43;95176.28;5073679;28;20667;-66
2022/01/20 00:48:16;;;;;;;12.90;5.80;;;;;;;-1.45;83.07;95186.25;5073465;28;20264;-63
2022/01/20 00:50:42;;;;;;;15.50;6.27;;;;;;;-1.38;82.99;95192.69;5091784;28;20237;-63
2022/01/20 00:53:07;;;;;;;15.70;6.53;;;;;;;-1.39;82.63;95185.25;5091499;28;20171;-64
2022/01/20 00:55:34;;;;;;;13.80;6.23;;;;;;;-1.27;83.18;95179.91;5092000;28;20225;-63
2022/01/20 00:57:59;;;;;;;11.77;5.67;;;;;;;-1.13;81.91;95197.75;5091474;28;20180;-64
2022/01/20 01:00:25;;;;;;;16.13;6.63;;;;;;;-0.98;80.78;95213.06;5091381;28;20246;-65
2022/01/20 01:02:50;;;;;;;14.07;6.77;;;;;;;-1.01;80.35;95214.84;5091493;28;20254;-63
2022/01/20 01:05:16;;;;;;;12.23;6.07;;;;;;;-1.10;79.79;95223.41;5089957;28;20235;-63
2022/01/20 01:07:49;;;;;;;11.23;5.50;;;;;;;-1.07;80.79;95197.56;5073137;28;20198;-63
2022/01/20 01:10:19;;;;;;;12.43;6.17;;;;;;;-0.98;81.34;95194.78;5092473;28;20282;-64
2022/01/20 01:12:56;;;;;;;13.07;5.37;;;;;;;-0.93;80.26;95220.41;5095533;28;20190;-63
2022/01/20 01:15:27;;;;;;;10.37;5.57;;;;;;;-0.78;79.75;95224.06;5096017;28;20200;-60
2022/01/20 01:23:22;;;;;;;13.83;7.63;;;;;;;-0.65;78.82;95228.63;5095860;28;20167;-64
2022/01/20 01:25:47;;;;;;;16.50;7.17;;;;;;;-0.56;77.96;95235.00;5077264;28;20211;-65
2022/01/20 01:28:21;;;;;;;11.03;6.17;;;;;;;-0.59;79.08;95215.97;5095395;28;20183;-64
2022/01/20 01:31:19;;;;;;;13.63;6.33;;;;;;;-0.63;78.65;95218.59;5095622;28;20223;-63
2022/01/20 01:33:52;;;;;;;14.67;6.77;;;;;;;-0.54;79.05;95200.81;5095163;28;20218;-64
2022/01/20 01:36:20;;;;;;;15.33;5.97;;;;;;;-0.53;79.22;95195.78;5076929;28;20245;-63
2022/01/20 01:38:47;;;;;;;13.37;7.30;;;;;;;-0.42;79.38;95185.41;5076798;28;20649;-61
2022/01/20 01:41:18;;;;;;;14.63;6.30;;;;;;;-0.44;79.72;95184.66;5095091;28;20246;-64
2022/01/20 01:43:48;;;;;;;17.23;6.83;;;;;;;-0.27;78.79;95193.22;5095381;28;20179;-61
2022/01/20 01:46:15;;;;;;;10.93;6.17;;;;;;;-0.20;78.33;95204.63;5076864;28;20208;-59
2022/01/20 01:48:42;;;;;;;13.90;6.63;;;;;;;-0.34;78.47;95184.28;5095040;28;20179;-62
2022/01/20 01:51:09;;;;;;;10.70;6.03;;;;;;;-0.37;79.08;95181.09;5095409;28;20640;-63
2022/01/20 01:53:37;;;;;;;12.60;6.97;;;;;;;-0.28;79.55;95180.75;5094973;28;20173;-65
2022/01/20 01:56:04;;;;;;;16.70;6.80;;;;;;;-0.21;78.53;95195.50;5095355;28;20254;-58
2022/01/20 01:58:29;;;;;;;11.83;6.53;;;;;;;-0.34;79.08;95169.31;5094555;28;20198;-59
2022/01/20 02:00:56;;;;;;;11.43;6.73;;;;;;;-0.24;77.24;95203.09;5093365;28;20227;-62
2022/01/20 02:03:23;;;;;;;13.07;6.47;;;;;;;-0.46;77.00;95192.19;5076435;28;20187;-63
2022/01/20 02:19:12;;;;;;;17.50;6.37;;;;;;;-0.77;78.00;95156.66;5094780;28;20286;-62
2022/01/20 02:21:50;;;;;;;18.87;6.47;;;;;;;-0.94;78.56;95151.41;5094345;28;20287;-62
2022/01/20 02:24:16;;;;;;;11.50;5.67;;;;;;;-1.08;79.09;95153.53;5076092;28;20202;-64
2022/01/20 02:26:41;;;;;;;9.90;5.60;;;;;;;-1.28;80.06;95120.94;5094519;28;20266;-65
2022/01/20 02:29:07;;;;;;;12.83;5.63;;;;;;;-1.31;81.42;95078.63;5094756;28;20219;-63
2022/01/20 02:31:32;;;;;;;15.27;6.57;;;;;;;-1.16;80.46;95108.06;5094762;28;20221;-65
2022/01/20 02:33:58;;;;;;;14.07;6.53;;;;;;;-1.08;79.30;95121.09;5058822;28;20198;-66
2022/01/20 02:36:24;;;;;;;11.53;6.27;;;;;;;-1.12;80.51;95102.94;5094477;28;20715;-62
2022/01/20 02:38:57;;;;;;;15.37;5.93;;;;;;;-1.14;80.46;95092.19;5075735;28;20198;-65
2022/01/20 02:46:50;;;;;;;11.37;5.63;;;;;;;-1.00;80.36;95085.06;5073536;28;20195;-63
2022/01/20 02:49:17;;;;;;;21.40;7.23;;;;;;;-0.77;79.17;95128.41;5073541;28;20179;-64
2022/01/20 02:51:54;;;;;;;11.93;6.40;;;;;;;-0.81;79.82;95121.88;5073833;28;20192;-64
2022/01/20 02:54:21;;;;;;;12.50;6.43;;;;;;;-0.95;80.91;95093.19;5073603;28;20270;-64
2022/01/20 02:56:47;;;;;;;12.60;6.80;;;;;;;-0.75;78.42;95142.47;5073388;28;20185;-64
2022/01/20 02:59:13;;;;;;;15.80;6.73;;;;;;;-0.85;79.18;95113.69;5055679;28;20260;-63
2022/01/20 03:01:39;;;;;;;13.50;6.30;;;;;;;-0.75;78.99;95120.00;5073123;28;20208;-60
2022/01/20 03:04:04;;;;;;;11.90;7.23;;;;;;;-0.79;78.79;95113.47;5073673;28;20238;-59
2022/01/20 03:06:30;;;;;;;16.53;6.67;;;;;;;-0.84;78.28;95115.31;5038666;28;20205;-64
2022/01/20 03:08:56;;;;;;;16.20;6.67;;;;;;;-0.76;78.32;95120.84;5073690;28;20188;-60
2022/01/20 03:11:21;;;;;;;12.23;6.40;;;;;;;-0.83;78.85;95108.63;5073308;28;20279;-64
2022/01/20 03:13:47;;;;;;;19.23;7.63;;;;;;;-1.05;79.66;95086.88;5073402;28;20592;-64
2022/01/20 03:16:12;;;;;;;14.00;6.77;;;;;;;-0.92;79.65;95087.31;5055028;28;20203;-62
2022/01/20 03:18:38;;;;;;;18.93;7.53;;;;;;;-0.91;78.67;95109.69;5071993;28;20601;-64
2022/01/20 03:21:03;;;;;;;15.47;6.70;;;;;;;-0.82;79.37;95110.25;5072785;28;20262;-63
2022/01/20 03:23:29;;;;;;;13.57;6.87;;;;;;;-0.81;79.40;95095.25;5073780;28;20177;-63
2022/01/20 03:25:54;;;;;;;23.97;7.77;;;;;;;-1.06;80.99;95067.81;5072773;28;20236;-62
2022/01/20 03:28:20;;;;;;;12.47;6.77;;;;;;;-0.92;80.49;95074.81;5073135;28;20204;-59
2022/01/20 03:30:45;;;;;;;10.70;6.10;;;;;;;-0.83;79.93;95084.50;5072932;28;20247;-63
2022/01/20 03:33:11;;;;;;;17.00;6.87;;;;;;;-0.75;78.65;95115.00;5072475;28;20189;-60
2022/01/20 03:35:37;;;;;;;17.47;7.07;;;;;;;-0.98;79.05;95093.31;5072466;28;20193;-60
2022/01/20 03:38:08;;;;;;;13.07;6.40;;;;;;;-1.01;79.15;95092.63;5073910;28;20189;-61
2022/01/20 03:40:34;;;;;;;13.73;6.23;;;;;;;-0.96;78.35;95100.75;5072724;28;20220;-64
2022/01/20 03:43:00;;;;;;;14.50;6.00;;;;;;;-0.96;78.63;95091.59;5072663;28;20200;-59
2022/01/20 03:45:27;;;;;;;15.13;6.30;;;;;;;-0.96;78.51;95099.06;5054329;28;20227;-64
2022/01/20 03:47:55;;;;;;;12.77;6.37;;;;;;;-1.09;78.75;95080.38;5072486;28;20320;-65
2022/01/20 03:53:06;;;;;;;12.73;5.47;;;;;;;-1.02;78.48;95078.50;5072393;28;20195;-59
2022/01/20 03:55:32;;;;;;;12.83;5.87;;;;;;;-1.06;78.86;95094.44;5072759;28;20576;-59
2022/01/20 03:57:57;;;;;;;12.40;5.67;;;;;;;-1.12;78.42;95073.00;5073377;28;20271;-65
2022/01/20 04:00:23;;;;;;;11.67;5.80;;;;;;;-1.01;78.45;95080.94;5072514;28;20212;-60
2022/01/20 04:02:48;;;;;;;11.60;6.10;;;;;;;-1.05;78.90;95071.94;5072624;28;20206;-62
2022/01/20 04:05:14;;;;;;;16.77;6.70;;;;;;;-1.08;78.13;95091.19;5098946;22;20614;-62
2022/01/20 04:07:39;;;;;;;14.03;6.60;;;;;;;-1.12;79.03;95070.50;5092880;28;20500;-61
2022/01/20 04:10:05;;;;;;;13.83;6.30;;;;;;;-1.22;79.38;95055.91;5074729;28;20748;-63
2022/01/20 04:12:31;;;;;;;10.93;6.33;;;;;;;-1.12;79.33;95054.72;5074639;28;20676;-62
2022/01/20 04:14:56;;;;;;;11.77;6.43;;;;;;;-1.08;78.69;95072.03;5075179;28;20568;-60
2022/01/20 04:17:26;;;;;;;9.63;5.33;;;;;;;-1.22;79.44;95045.94;5091778;28;20648;-61
2022/01/20 04:19:52;;;;;;;13.00;5.90;;;;;;;-1.26;78.14;95067.66;5093025;28;20208;-65
2022/01/20 04:22:17;;;;;;;12.50;6.53;;;;;;;-1.42;78.74;95049.09;5092501;28;20186;-62
2022/01/20 04:24:42;;;;;;;13.40;6.23;;;;;;;-1.47;79.98;95042.59;5074732;28;20229;-62
2022/01/20 04:27:08;;;;;;;14.90;6.10;;;;;;;-1.57;80.16;95022.16;5092826;28;20240;-64
2022/01/20 04:29:34;;;;;;;12.97;5.80;;;;;;;-1.51;80.02;95028.59;5074500;28;20671;-64
2022/01/20 04:32:00;;;;;;;14.20;6.13;;;;;;;-1.67;81.53;95010.03;5092395;28;20259;-64
2022/01/20 04:34:25;;;;;;;16.90;7.17;;;;;;;-1.60;81.42;95013.97;5057806;28;20729;-66
2022/01/20 04:36:53;;;;;;;15.07;6.37;;;;;;;-1.52;81.00;95014.53;5091297;28;20187;-64
2022/01/20 04:39:28;;;;;;;14.60;6.90;;;;;;;-1.42;80.11;95030.81;5092756;28;20187;-62
2022/01/20 04:41:55;;;;;;;16.07;6.50;;;;;;;-1.44;80.84;95027.56;5113633;22;20236;-60
2022/01/20 04:44:36;;;;;;;9.27;6.20;;;;;;;-1.63;81.13;95012.38;5091892;28;20617;-65
2022/01/20 04:57:50;;;;;;;12.00;5.67;;;;;;;-1.72;82.63;94991.06;5092772;28;20177;-63
2022/01/20 05:00:16;;;;;;;12.77;7.30;;;;;;;-1.70;82.86;94991.03;5092312;28;20347;-63
2022/01/20 05:02:42;;;;;;;26.30;6.73;;;;;;;-1.44;81.16;95017.59;5074501;28;20213;-65
2022/01/20 05:05:09;;;;;;;13.80;6.40;;;;;;;-1.31;80.35;95046.22;5092781;28;20211;-67
2022/01/20 05:07:35;;;;;;;12.43;6.40;;;;;;;-1.39;80.39;95023.22;5092663;28;20570;-66
2022/01/20 05:10:06;;;;;;;14.47;6.57;;;;;;;-1.34;80.63;95031.38;5092279;28;20298;-63
2022/01/20 05:13:00;;;;;;;16.53;6.30;;;;;;;-1.44;80.45;95038.34;5092535;28;20249;-62
2022/01/20 05:15:21;;;;;;;13.50;6.53;;;;;;;-1.55;81.10;95030.38;5091780;28;20593;-61
2022/01/20 05:17:48;;;;;;;19.03;6.50;;;;;;;-1.47;80.72;95033.44;5092717;28;20185;-64
2022/01/20 05:20:14;;;;;;;13.73;7.20;;;;;;;-1.65;81.38;95013.28;5092378;28;20282;-66
2022/01/20 05:22:40;;;;;;;13.30;6.27;;;;;;;-1.60;82.13;95011.47;5092207;28;20178;-64
2022/01/20 05:25:09;;;;;;;15.63;6.53;;;;;;;-1.53;82.21;95011.22;5092174;28;20255;-64
2022/01/20 05:27:35;;;;;;;15.90;7.00;;;;;;;-1.61;83.54;94997.38;5092660;28;20195;-67
2022/01/20 05:30:02;;;;;;;15.83;7.37;;;;;;;-1.37;82.28;95011.50;5091653;28;20222;-63
2022/01/20 05:32:27;;;;;;;14.30;7.17;;;;;;;-1.59;82.96;94996.47;5092255;28;20570;-64
2022/01/20 05:34:53;;;;;;;15.70;7.20;;;;;;;-1.39;81.28;95035.69;5091675;28;20269;-65
2022/01/20 05:37:19;;;;;;;14.67;6.63;;;;;;;-1.51;81.11;95038.56;5073717;28;20278;-60
2022/01/20 05:39:45;;;;;;;16.83;6.90;;;;;;;-1.62;82.31;95020.66;5091551;28;20202;-65
2022/01/20 05:42:10;;;;;;;11.43;6.90;;;;;;;-1.64;82.76;95015.75;5091800;28;20651;-64
2022/01/20 05:44:36;;;;;;;20.83;7.77;;;;;;;-1.52;81.02;95029.47;5091962;28;20249;-67
2022/01/20 05:47:10;;;;;;;13.10;6.47;;;;;;;-1.45;82.77;94999.31;5091964;28;20188;-63
2022/01/20 05:49:36;;;;;;;20.60;9.07;;;;;;;-1.47;82.44;95003.53;5091547;28;20166;-61
2022/01/20 05:52:03;;;;;;;18.37;9.27;;;;;;;-1.39;81.63;95026.53;5091363;28;20668;-63
2022/01/20 05:54:29;;;;;;;22.23;9.67;;;;;;;-1.41;80.74;95019.97;5091572;28;20187;-61
2022/01/20 05:56:55;;;;;;;13.93;7.20;;;;;;;-1.39;81.10;95040.66;5095018;28;20187;-65
2022/01/20 05:59:20;;;;;;;16.33;7.77;;;;;;;-1.50;82.09;95017.78;5095153;28;20193;-63
2022/01/20 06:01:52;;;;;;;14.70;7.13;;;;;;;-1.49;81.91;95015.22;5095327;28;20273;-63
2022/01/20 06:04:18;;;;;;;20.40;7.97;;;;;;;-1.32;81.54;95024.66;5078024;28;20530;-63
2022/01/20 06:06:44;;;;;;;17.33;7.30;;;;;;;-1.31;80.51;95036.25;5095338;28;20183;-64
2022/01/20 06:09:10;;;;;;;15.57;7.40;;;;;;;-1.30;80.29;95055.34;5095562;28;20175;-62
2022/01/20 06:11:37;;;;;;;16.97;7.17;;;;;;;-1.44;80.33;95043.34;5095050;28;20242;-59
2022/01/20 06:14:04;;;;;;;15.77;7.07;;;;;;;-1.47;80.83;95015.19;5093492;28;20703;-62
2022/01/20 06:16:35;;;;;;;17.83;7.90;;;;;;;-1.54;81.27;95022.06;5060258;28;20215;-60
2022/01/20 06:19:00;;;;;;;17.53;7.60;;;;;;;-1.59;81.35;95028.84;5095684;28;20293;-63
2022/01/20 06:21:26;;;;;;;15.00;7.27;;;;;;;-1.81;80.33;95036.19;5076583;28;20300;-65
2022/01/20 06:23:51;;;;;;;14.67;7.33;;;;;;;-1.96;82.52;95008.47;5094574;28;20296;-62
2022/01/20 06:26:17;;;;;;;15.83;6.97;;;;;;;-1.99;83.65;95001.09;5095379;28;20198;-61
2022/01/20 06:28:43;;;;;;;17.40;7.60;;;;;;;-2.07;83.41;94993.03;5094237;28;20214;-62
2022/01/20 06:31:10;;;;;;;16.50;8.47;;;;;;;-2.09;83.89;95003.06;5076700;28;20211;-66
2022/01/20 06:33:36;;;;;;;16.87;7.00;;;;;;;-2.35;84.60;94980.63;5095369;28;20178;-67
2022/01/20 06:36:02;;;;;;;16.17;8.03;;;;;;;-2.17;85.17;94990.03;5076369;28;20584;-64
2022/01/20 06:38:27;;;;;;;14.50;7.80;;;;;;;-2.18;84.07;95003.31;5094442;28;20170;-63
2022/01/20 06:40:53;;;;;;;18.27;8.10;;;;;;;-2.07;84.49;94993.84;5094194;28;20226;-62
2022/01/20 06:43:19;;;;;;;15.70;7.57;;;;;;;-1.97;84.40;95007.66;5094093;28;20182;-63
2022/01/20 06:45:45;;;;;;;16.07;7.63;;;;;;;-1.88;84.43;94999.88;5094273;28;20251;-61
2022/01/20 06:48:11;;;;;;;22.67;8.97;;;;;;;-1.84;83.26;95018.84;5094465;28;20185;-65
2022/01/20 06:50:36;;;;;;;17.67;8.47;;;;;;;-1.63;83.47;95019.84;5094057;28;20207;-64
2022/01/20 06:53:02;;;;;;;17.00;8.67;;;;;;;-1.53;82.25;95010.38;5094469;28;20624;-65
2022/01/20 06:55:27;;;;;;;22.80;8.63;;;;;;;-1.30;80.67;95053.66;5093791;28;20202;-63
2022/01/20 06:57:53;;;;;;;18.63;8.63;;;;;;;-1.41;79.84;95047.38;5094419;28;20568;-64
2022/01/20 07:00:23;;;;;;;18.47;8.37;;;;;;;-1.38;79.93;95037.31;5093555;28;20258;-64
2022/01/20 07:02:50;;;;;;;25.90;9.40;;;;;;;-1.24;78.99;95065.09;5094176;28;20177;-65
2022/01/20 07:05:18;;;;;;;19.30;9.03;;;;;;;-1.12;78.82;95070.50;5075492;28;20206;-62
2022/01/20 07:07:43;;;;;;;19.77;8.03;;;;;;;-1.02;79.17;95061.84;5093288;28;20217;-61
2022/01/20 07:10:11;;;;;;;18.00;8.77;;;;;;;-1.01;77.41;95102.59;5093624;28;20277;-62
2022/01/20 07:12:41;;;;;;;16.87;8.13;;;;;;;-1.05;77.43;95088.59;5094013;28;20640;-65
2022/01/20 07:15:07;;;;;;;22.43;8.53;;;;;;;-1.09;77.31;95104.53;5093449;28;20199;-62
2022/01/20 07:17:33;;;;;;;20.77;8.23;;;;;;;-1.02;79.13;95056.06;5094070;28;20199;-60
2022/01/20 07:19:59;;;;;;;16.97;8.30;;;;;;;-0.74;78.43;95091.66;5075000;28;20215;-65
2022/01/20 07:22:24;;;;;;;20.73;7.77;;;;;;;-0.53;76.65;95120.91;5093795;28;20183;-65
2022/01/20 07:24:50;;;;;;;15.13;7.83;;;;;;;-0.53;78.63;95060.16;5075033;28;20202;-60
2022/01/20 07:27:34;;;;;;;16.13;8.43;;;;;;;-0.31;74.69;95140.94;5093387;28;20187;-59
2022/01/20 07:30:00;;;;;;;18.43;7.83;;;;;;;-0.20;74.28;95123.88;5092686;28;20211;-63
2022/01/20 07:32:26;;;;;;;12.87;7.67;;;;;;;-0.02;74.82;95125.69;5093956;28;20275;-63
2022/01/20 07:34:51;;;;;;;17.43;8.47;;;;;;;0.08;74.06;95149.50;5075620;28;20294;-65
2022/01/20 07:37:17;;;;;;;17.63;8.43;;;;;;;0.07;74.73;95122.88;5092868;28;20283;-64
2022/01/20 07:39:42;;;;;;;17.23;8.57;;;;;;;0.26;73.51;95155.50;5093307;28;20212;-62
2022/01/20 07:42:08;;;;;;;19.67;8.87;;;;;;;0.48;72.69;95162.16;5094073;28;20184;-65
2022/01/20 07:44:34;;;;;;;18.63;8.70;;;;;;;0.10;71.57;95162.78;5092981;28;20578;-62
2022/01/20 07:47:00;;;;;;;17.63;8.93;;;;;;;0.11;72.83;95143.56;5074993;28;20192;-63
2022/01/20 07:49:27;;;;;;;16.20;7.73;;;;;;;0.18;72.70;95152.47;5093102;28;20186;-62
2022/01/20 07:51:53;;;;;;;19.10;9.23;;;;;;;0.28;70.63;95198.75;5075209;28;20657;-63
2022/01/20 07:54:18;;;;;;;16.37;8.23;;;;;;;0.78;68.61;95243.56;5092714;28;20175;-61
2022/01/20 07:56:44;;;;;;;20.20;7.80;;;;;;;0.66;70.04;95210.66;5093087;28;20267;-59
2022/01/20 07:59:09;;;;;;;23.37;8.93;;;;;;;0.87;69.63;95204.81;5074497;28;20622;-61
2022/01/20 08:01:35;;;;;;;19.77;8.67;;;;;;;1.29;66.58;95265.78;5092913;28;20702;-65
2022/01/20 08:04:00;;;;;;;19.17;9.37;;;;;;;1.37;67.03;95236.22;5092556;28;20544;-65
2022/01/20 08:06:26;;;;;;;16.57;8.80;;;;;;;1.59;67.04;95252.03;5092696;28;20207;-62
2022/01/20 08:08:52;;;;;;;21.30;8.90;;;;;;;1.67;65.88;95269.25;5092733;28;20180;-66
2022/01/20 08:11:19;;;;;;;15.27;8.57;;;;;;;1.78;66.47;95264.59;5091297;28;20299;-62
2022/01/20 08:13:45;;;;;;;18.27;8.80;;;;;;;1.97;66.70;95264.66;5092406;28;20279;-63
2022/01/20 08:16:10;;;;;;;18.33;9.60;;;;;;;2.03;65.59;95274.44;5074658;28;20291;-63
2022/01/20 08:18:36;;;;;;;19.77;8.87;;;;;;;2.14;63.07;95322.44;5092242;28;20180;-65
2022/01/20 08:21:01;;;;;;;15.93;8.43;;;;;;;2.16;63.32;95298.13;5092334;28;20212;-60
2022/01/20 08:23:26;;;;;;;18.43;9.20;;;;;;;2.27;63.64;95283.44;5092410;28;20183;-65
2022/01/20 08:25:52;;;;;;;18.17;8.90;;;;;;;2.45;62.80;95287.66;5091415;22;20230;-61
2022/01/20 08:28:21;;;;;;;24.20;9.67;;;;;;;2.76;62.44;95300.50;5092447;28;20267;-65
2022/01/20 08:30:46;;;;;;;21.37;9.07;;;;;;;3.05;60.51;95310.06;5092030;28;20201;-59
2022/01/20 08:33:12;;;;;;;15.17;9.03;;;;;;;3.29;59.28;95313.97;5092180;28;20253;-63
2022/01/20 08:35:39;;;;;;;25.37;8.97;;;;;;;3.50;57.51;95307.13;5092144;28;20207;-63
2022/01/20 08:38:06;;;;;;;24.83;9.63;;;;;;;3.87;56.88;95349.78;5092086;28;20180;-65
2022/01/20 08:40:35;;;;;;;21.27;9.20;;;;;;;4.10;56.05;95346.94;5091848;28;20212;-65
2022/01/20 08:43:01;;;;;;;24.93;9.47;;;;;;;4.35;56.42;95328.97;5092097;28;20201;-66
2022/01/20 08:45:30;;;;;;;21.77;10.50;;;;;;;4.70;54.59;95368.28;5089649;22;20252;-65
2022/01/20 08:47:57;;;;;;;24.33;8.87;;;;;;;4.94;53.36;95363.69;5071643;28;20195;-66
2022/01/20 08:50:26;;;;;;;20.40;9.80;;;;;;;5.11;52.82;95369.50;5072026;28;20625;-62
2022/01/20 08:52:52;;;;;;;37.57;11.03;;;;;;;5.25;52.65;95366.28;5071743;28;20174;-66
2022/01/20 08:55:18;;;;;;;23.33;9.77;;;;;;;5.46;51.70;95362.59;5072029;28;20211;-64
2022/01/20 08:57:45;;;;;;;25.17;9.77;;;;;;;5.77;51.56;95344.91;5071863;28;20180;-61
2022/01/20 09:00:12;;;;;;;28.57;11.83;;;;;;;6.01;50.87;95350.34;5071468;28;20215;-65
2022/01/20 09:02:37;;;;;;;25.83;10.30;;;;;;;6.01;48.69;95301.56;5071500;28;20176;-64
2022/01/20 09:05:04;;;;;;;20.53;9.70;;;;;;;6.17;47.82;95305.69;5071715;28;20291;-64
2022/01/20 09:07:30;;;;;;;21.97;10.17;;;;;;;6.15;47.06;95296.56;5071369;28;20202;-65
2022/01/20 09:09:59;;;;;;;23.37;8.97;;;;;;;6.49;46.73;95299.56;5071595;28;20557;-64
2022/01/20 09:17:46;;;;;;;19.77;9.07;;;;;;;6.81;44.40;95290.09;5071392;28;20240;-64
2022/01/20 09:20:12;;;;;;;25.10;9.27;;;;;;;6.77;44.32;95281.06;5071545;28;20670;-65
2022/01/20 09:22:38;;;;;;;16.00;8.73;;;;;;;6.71;44.83;95257.00;5071179;28;20180;-63
2022/01/20 09:25:06;;;;;;;20.03;9.17;;;;;;;6.95;44.02;95262.28;5071380;28;20629;-63
2022/01/20 09:27:31;;;;;;;28.50;9.27;;;;;;;7.25;43.95;95257.84;5070842;28;20195;-64
2022/01/20 09:29:56;;;;;;;22.13;8.90;;;;;;;7.23;43.77;95248.78;5071520;28;20212;-64
2022/01/20 09:32:25;;;;;;;17.57;8.17;;;;;;;7.39;42.70;95257.03;5057143;28;20177;-64
2022/01/20 09:34:50;;;;;;;22.13;8.77;;;;;;;7.77;42.74;95255.41;5074799;28;20750;-65
2022/01/20 09:37:16;;;;;;;20.33;9.50;;;;;;;6.34;44.16;95202.00;5075037;28;20178;-66
2022/01/20 09:39:41;;;;;;;16.07;9.73;;;;;;;5.88;45.69;95166.03;5056942;28;20216;-67
2022/01/20 09:42:08;;;;;;;20.30;9.97;;;;;;;6.54;45.42;95173.84;5075021;28;20207;-65
2022/01/20 09:44:34;;;;;;;22.43;9.90;;;;;;;6.65;44.39;95180.75;5074740;28;20267;-67
2022/01/20 09:47:00;;;;;;;21.27;9.17;;;;;;;7.47;44.38;95194.13;5075132;28;20285;-66
2022/01/20 09:49:25;;;;;;;22.20;8.87;;;;;;;7.98;42.25;95230.44;5074760;28;20188;-65
2022/01/20 09:51:51;;;;;;;16.97;9.27;;;;;;;7.83;41.61;95233.94;5074752;28;20264;-66
2022/01/20 09:54:17;;;;;;;20.60;9.23;;;;;;;7.88;41.55;95227.66;5074912;28;20173;-58
2022/01/20 09:56:44;;;;;;;19.77;8.37;;;;;;;8.13;41.77;95212.50;5056770;28;20204;-59
2022/01/20 09:59:11;;;;;;;19.97;10.07;;;;;;;8.23;39.67;95231.25;5074811;28;20205;-64
2022/01/20 10:01:43;;;;;;;17.63;9.23;;;;;;;8.72;39.96;95226.25;5056499;28;20216;-65
2022/01/20 10:04:23;;;;;;;21.20;9.20;;;;;;;8.75;39.42;95215.91;5074738;28;20185;-61
2022/01/20 10:07:01;;;;;;;21.17;10.63;;;;;;;7.75;41.67;95161.06;5074715;28;20169;-65
2022/01/20 10:09:38;;;;;;;25.70;11.10;;;;;;;7.84;41.58;95140.19;5056707;28;20180;-65
2022/01/20 10:12:05;;;;;;;30.73;11.63;;;;;;;8.30;41.90;95150.63;5056779;28;20176;-64
2022/01/20 10:14:44;;;;;;;23.20;10.40;;;;;;;8.93;40.95;95173.25;5074732;28;20260;-62
2022/01/20 10:17:39;;;;;;;23.10;10.43;;;;;;;9.29;40.87;95171.47;5074654;28;20255;-66
2022/01/20 10:20:08;;;;;;;25.80;10.67;;;;;;;9.61;39.70;95181.84;5057590;28;20220;-61
2022/01/20 10:22:36;;;;;;;24.43;10.60;;;;;;;10.02;38.66;95201.66;5056339;28;20188;-65
2022/01/20 10:25:12;;;;;;;21.67;10.43;;;;;;;10.20;38.23;95190.16;5074682;28;20564;-62
2022/01/20 10:27:51;;;;;;;24.47;10.47;;;;;;;10.31;37.76;95202.06;5074570;28;20185;-59
2022/01/20 10:30:17;;;;;;;22.60;10.27;;;;;;;10.38;36.95;95198.16;5056450;28;20203;-59
2022/01/20 10:32:47;;;;;;;24.00;10.77;;;;;;;10.56;37.48;95177.25;5056193;28;20259;-59
2022/01/20 10:35:15;;;;;;;19.43;9.47;;;;;;;10.39;37.71;95164.19;5074651;28;20204;-65
2022/01/20 10:37:59;;;;;;;22.50;9.60;;;;;;;10.50;36.50;95165.00;5073983;28;20184;-63
2022/01/20 10:40:25;;;;;;;20.30;9.37;;;;;;;10.69;36.21;95174.56;5074182;28;20216;-62
2022/01/20 10:42:50;;;;;;;25.63;9.80;;;;;;;10.85;37.50;95141.94;5072667;28;20177;-60
2022/01/20 10:45:25;;;;;;;21.90;8.90;;;;;;;10.88;36.10;95165.41;5074191;28;20205;-58
2022/01/20 10:47:57;;;;;;;22.17;9.43;;;;;;;10.85;36.40;95152.91;5073678;28;20737;-65
2022/01/20 10:50:30;;;;;;;21.80;9.20;;;;;;;10.84;35.43;95150.50;5073901;28;20234;-64
2022/01/20 10:52:56;;;;;;;21.13;10.07;;;;;;;11.15;35.76;95143.81;5073897;28;20235;-59
2022/01/20 10:55:25;;;;;;;14.40;8.73;;;;;;;11.26;34.74;95164.94;5073560;28;20678;-60
2022/01/20 10:57:53;;;;;;;19.23;8.17;;;;;;;11.14;35.20;95137.94;5073981;28;20227;-63
2022/01/20 11:00:21;;;;;;;19.97;9.17;;;;;;;11.49;35.33;95127.47;5073732;28;20209;-65
2022/01/20 11:02:55;;;;;;;21.40;8.40;;;;;;;11.62;34.03;95151.81;5074050;28;20177;-61
2022/01/20 11:05:22;;;;;;;25.63;8.70;;;;;;;11.54;34.78;95128.72;5073421;28;20766;-59
2022/01/20 11:07:48;;;;;;;20.37;8.67;;;;;;;11.76;33.88;95136.25;5073256;28;20173;-64
2022/01/20 11:10:15;;;;;;;16.20;8.10;;;;;;;11.58;33.36;95132.63;5055468;28;20213;-62
2022/01/20 11:12:41;;;;;;;31.67;14.13;;;;;;;11.48;34.71;95088.47;5055309;28;20180;-65
2022/01/20 11:15:10;;;;;;;20.23;8.40;;;;;;;11.46;33.50;95122.63;5055299;28;20213;-62
2022/01/20 11:17:40;;;;;;;27.80;9.50;;;;;;;11.55;33.34;95122.66;5073230;28;20716;-65
2022/01/20 11:20:13;;;;;;;17.27;8.67;;;;;;;11.53;32.60;95133.94;5073367;28;20701;-61
2022/01/20 11:22:59;;;;;;;21.93;7.80;;;;;;;11.62;33.16;95102.63;5072860;28;20619;-60
2022/01/20 11:25:27;;;;;;;19.90;9.03;;;;;;;11.35;33.55;95085.28;5073394;28;20233;-65
2022/01/20 11:28:17;;;;;;;18.47;8.10;;;;;;;11.74;33.41;95087.19;5073000;28;20181;-62
2022/01/20 11:31:06;;;;;;;27.60;9.07;;;;;;;11.97;33.48;95076.81;5073358;28;20201;-65
2022/01/20 11:33:35;;;;;;;21.93;8.90;;;;;;;12.19;33.14;95086.84;5055108;28;20173;-64
2022/01/20 11:36:01;;;;;;;18.17;8.60;;;;;;;12.17;32.10;95097.16;5072813;28;20209;-66
2022/01/20 11:38:45;;;;;;;19.97;8.27;;;;;;;12.21;32.91;95065.38;5072964;28;20675;-60
2022/01/20 11:41:13;;;;;;;21.37;8.47;;;;;;;12.56;33.38;95062.41;5055755;28;20324;-61
2022/01/20 11:43:45;;;;;;;25.10;8.57;;;;;;;12.57;32.58;95069.09;5072823;28;20177;-65
2022/01/20 11:46:41;;;;;;;17.53;7.80;;;;;;;12.79;32.13;95081.59;5073263;28;20209;-65
2022/01/20 11:49:10;;;;;;;18.17;8.13;;;;;;;12.69;32.09;95091.00;5054876;28;20189;-65
2022/01/20 11:51:41;;;;;;;21.87;9.07;;;;;;;12.53;31.66;95101.72;5072666;28;20201;-62
2022/01/20 11:54:07;;;;;;;23.13;7.87;;;;;;;12.33;31.29;95091.59;5072187;28;20522;-65
2022/01/20 11:56:39;;;;;;;16.77;7.80;;;;;;;12.31;30.92;95090.91;5072528;28;20276;-64
2022/01/20 11:59:14;;;;;;;17.60;7.33;;;;;;;12.37;32.34;95039.41;5072481;28;20552;-65
2022/01/20 12:01:48;;;;;;;6.93;2.40;;;;;;;11.45;27.72;95147.25;5072343;28;20306;-59
2022/01/20 12:04:18;;;;;;;6.03;2.60;;;;;;;11.37;27.64;95108.88;5054361;28;20205;-61
2022/01/20 12:06:47;;;;;;;4.70;1.77;;;;;;;10.54;26.74;95105.38;5072622;28;20642;-60
2022/01/20 12:09:45;;;;;;;3.23;1.40;;;;;;;10.37;27.83;95066.91;5072138;28;20235;-61
2022/01/20 12:12:26;;;;;;;4.47;1.87;;;;;;;10.27;28.02;95050.78;5054444;28;20260;-61
2022/01/20 12:14:52;;;;;;;8.37;2.47;;;;;;;10.68;28.61;95049.19;5072375;28;20197;-62
2022/01/20 12:17:17;;;;;;;2.40;1.73;;;;;;;10.73;27.95;95052.16;5072188;28;20185;-62
2022/01/20 12:19:53;;;;;;;5.30;2.10;;;;;;;10.40;28.34;95034.47;5072158;28;20227;-63
2022/01/20 12:22:18;;;;;;;2.97;1.77;;;;;;;10.01;28.92;95014.66;5072213;28;20203;-65
2022/01/20 12:24:56;;;;;;;6.30;2.30;;;;;;;9.98;28.99;95012.31;5072169;28;20221;-61
2022/01/20 12:27:25;;;;;;;7.27;2.37;;;;;;;9.80;28.93;95006.94;5054101;28;20180;-66
2022/01/20 12:29:52;;;;;;;4.57;2.03;;;;;;;9.63;29.71;94986.28;5071896;28;20197;-63
2022/01/20 12:32:27;;;;;;;4.57;2.50;;;;;;;9.47;29.95;94985.84;5055512;28;20196;-61
2022/01/20 12:35:00;;;;;;;6.33;1.97;;;;;;;9.55;30.54;94981.81;5072158;28;20207;-66
2022/01/20 12:37:37;;;;;;;3.80;2.23;;;;;;;9.87;30.49;94975.09;5072246;28;20171;-66
2022/01/20 12:40:04;;;;;;;7.40;2.10;;;;;;;10.27;30.19;94974.56;5053664;28;20665;-66